createdAt,value
2023-01-09T00:01:25.343Z,0.95
2023-01-09T00:03:51.892Z,1.63
2023-01-09T00:06:18.335Z,1.05
2023-01-09T00:08:45.120Z,0.80
2023-01-09T00:11:11.538Z,0.60
2023-01-09T00:13:38.579Z,0.93
2023-01-09T00:16:07.074Z,1.00
2023-01-09T00:18:33.915Z,1.23
2023-01-09T00:21:01.998Z,1.25
2023-01-09T00:23:28.456Z,0.93
2023-01-09T00:26:06.481Z,1.05
2023-01-09T00:28:34.008Z,0.82
2023-01-09T00:31:04.152Z,1.15
2023-01-09T00:33:33.976Z,1.00
2023-01-09T00:36:00.664Z,1.10
2023-01-09T00:38:27.183Z,0.95
2023-01-09T00:40:55.191Z,0.95
2023-01-09T00:43:26.897Z,1.35
2023-01-09T00:45:53.450Z,1.08
2023-01-09T00:48:26.559Z,1.48
2023-01-09T00:50:56.486Z,1.10
2023-01-09T00:53:25.579Z,1.00
2023-01-09T00:55:52.495Z,1.15
2023-01-09T00:58:19.617Z,1.35
2023-01-09T01:00:46.070Z,1.20
2023-01-09T01:03:12.585Z,0.80
2023-01-09T01:05:57.414Z,1.17
2023-01-09T01:08:23.921Z,1.88
2023-01-09T01:10:50.404Z,2.08
2023-01-09T01:13:17.287Z,0.98
2023-01-09T01:15:45.132Z,1.42
2023-01-09T01:18:13.367Z,2.15
2023-01-09T01:20:41.677Z,1.30
2023-01-09T01:23:08.133Z,0.82
2023-01-09T01:25:40.071Z,1.35
2023-01-09T01:28:06.963Z,0.95
2023-01-09T01:30:33.739Z,1.20
2023-01-09T01:33:00.378Z,0.82
2023-01-09T01:35:26.788Z,1.33
2023-01-09T01:37:53.370Z,1.00
2023-01-09T01:40:20.169Z,0.90
2023-01-09T01:42:52.183Z,1.55
2023-01-09T01:45:21.470Z,1.08
2023-01-09T01:47:47.848Z,1.10
2023-01-09T01:50:35.571Z,1.10
2023-01-09T01:53:04.454Z,0.95
2023-01-09T01:55:31.630Z,1.23
2023-01-09T01:58:03.962Z,1.08
2023-01-09T02:00:35.182Z,1.20
2023-01-09T02:03:02.156Z,0.77
2023-01-09T02:05:29.051Z,1.65
2023-01-09T02:07:55.517Z,1.35
2023-01-09T02:10:23.610Z,1.40
2023-01-09T02:12:50.684Z,1.17
2023-01-09T02:15:18.689Z,0.90
2023-01-09T02:17:47.827Z,1.25
2023-01-09T02:20:33.499Z,1.20
2023-01-09T02:23:26.120Z,1.10
2023-01-09T02:26:18.412Z,1.38
2023-01-09T02:28:59.961Z,0.90
2023-01-09T02:31:40.157Z,1.70
2023-01-09T02:34:21.956Z,1.58
2023-01-09T02:37:07.031Z,1.58
2023-01-09T02:39:44.381Z,1.73
2023-01-09T02:42:10.700Z,2.10
2023-01-09T02:44:37.132Z,1.80
2023-01-09T02:47:15.329Z,2.22
2023-01-09T02:49:49.851Z,2.65
2023-01-09T02:52:47.752Z,2.08
2023-01-09T02:55:41.877Z,2.00
2023-01-09T02:58:36.428Z,1.98
2023-01-09T03:01:02.837Z,2.00
2023-01-09T03:03:52.383Z,2.15
2023-01-09T03:06:37.891Z,2.67
2023-01-09T03:09:17.388Z,2.40
2023-01-09T03:11:50.086Z,2.17
2023-01-09T03:14:21.315Z,2.47
2023-01-09T03:16:52.863Z,2.53
2023-01-09T03:19:23.044Z,2.40
2023-01-09T03:21:50.905Z,2.42
2023-01-09T03:24:17.332Z,4.13
2023-01-09T03:26:43.947Z,1.98
2023-01-09T03:29:10.564Z,2.75
2023-01-09T03:31:37.090Z,2.80
2023-01-09T03:34:03.530Z,2.33
2023-01-09T03:36:30.157Z,2.42
2023-01-09T03:38:56.591Z,2.15
2023-01-09T03:41:23.140Z,2.75
2023-01-09T03:43:49.591Z,2.42
2023-01-09T03:46:16.964Z,2.20
2023-01-09T03:48:43.548Z,2.22
2023-01-09T03:51:10.299Z,2.10
2023-01-09T03:53:36.702Z,3.08
2023-01-09T03:56:03.433Z,2.40
2023-01-09T03:58:29.973Z,2.20
2023-01-09T04:01:01.939Z,2.42
2023-01-09T04:03:28.487Z,2.03
2023-01-09T04:05:55.107Z,2.40
2023-01-09T04:08:22.220Z,2.58
2023-01-09T04:10:50.355Z,2.40
2023-01-09T04:13:17.050Z,2.42
2023-01-09T04:15:43.554Z,3.05
2023-01-09T04:18:10.017Z,3.05
2023-01-09T04:20:36.537Z,2.88
2023-01-09T04:23:03.004Z,2.70
2023-01-09T04:25:29.447Z,4.75
2023-01-09T04:27:55.936Z,3.00
2023-01-09T04:30:22.426Z,3.03
2023-01-09T04:32:48.806Z,2.53
2023-01-09T04:35:15.391Z,3.35
2023-01-09T04:37:41.889Z,2.22
2023-01-09T04:40:09.438Z,2.70
2023-01-09T04:42:36.664Z,2.15
2023-01-09T04:45:04.264Z,2.75
2023-01-09T04:47:31.354Z,3.00
2023-01-09T04:49:57.745Z,2.55
2023-01-09T04:52:24.293Z,2.80
2023-01-09T04:54:51.029Z,2.22
2023-01-09T04:57:17.576Z,2.72
2023-01-09T04:59:44.004Z,2.88
2023-01-09T05:02:10.995Z,2.85
2023-01-09T05:04:37.659Z,2.78
2023-01-09T05:07:04.238Z,3.38
2023-01-09T05:09:30.983Z,2.92
2023-01-09T05:11:57.429Z,2.67
2023-01-09T05:14:23.794Z,3.00
2023-01-09T05:16:50.441Z,2.88
2023-01-09T05:19:16.871Z,2.90
2023-01-09T05:21:43.314Z,3.10
2023-01-09T05:24:09.706Z,2.80
2023-01-09T05:26:36.159Z,3.58
2023-01-09T05:29:02.578Z,2.70
2023-01-09T05:31:29.165Z,3.30
2023-01-09T05:33:55.802Z,3.30
2023-01-09T05:36:22.184Z,4.00
2023-01-09T05:38:48.587Z,2.90
2023-01-09T05:41:15.022Z,3.78
2023-01-09T05:43:41.578Z,4.43
2023-01-09T05:46:08.071Z,5.00
2023-01-09T05:48:34.494Z,4.80
2023-01-09T05:51:00.845Z,4.93
2023-01-09T05:53:27.240Z,4.55
2023-01-09T05:55:53.639Z,4.03
2023-01-09T05:58:20.067Z,4.70
2023-01-09T06:00:46.522Z,5.15
2023-01-09T06:03:13.000Z,4.03
2023-01-09T06:05:39.431Z,4.43
2023-01-09T06:08:05.859Z,4.57
2023-01-09T06:10:32.302Z,3.97
2023-01-09T06:12:58.735Z,4.57
2023-01-09T06:15:25.085Z,4.05
2023-01-09T06:17:51.634Z,5.03
2023-01-09T06:20:18.489Z,5.05
2023-01-09T06:22:45.339Z,5.97
2023-01-09T06:25:13.049Z,4.20
2023-01-09T06:27:39.478Z,4.28
2023-01-09T06:30:06.677Z,3.58
2023-01-09T06:32:33.056Z,4.18
2023-01-09T06:34:59.619Z,4.55
2023-01-09T06:37:26.126Z,3.53
2023-01-09T06:39:54.075Z,3.72
2023-01-09T06:42:20.966Z,4.70
2023-01-09T06:44:47.526Z,4.40
2023-01-09T06:47:13.951Z,4.25
2023-01-09T06:49:40.293Z,4.20
2023-01-09T06:52:07.748Z,4.40
2023-01-09T06:54:34.912Z,4.88
2023-01-09T06:57:01.394Z,5.38
2023-01-09T06:59:27.912Z,5.05
2023-01-09T07:01:54.570Z,5.22
2023-01-09T07:04:22.256Z,5.50
2023-01-09T07:06:49.301Z,5.18
2023-01-09T07:09:15.773Z,5.28
2023-01-09T07:11:42.321Z,5.18
2023-01-09T07:14:08.933Z,5.65
2023-01-09T07:16:35.346Z,6.10
2023-01-09T07:19:01.758Z,6.43
2023-01-09T07:21:28.318Z,6.03
2023-01-09T07:23:54.733Z,5.97
2023-01-09T07:26:21.143Z,6.32
2023-01-09T07:28:47.504Z,7.47
2023-01-09T07:31:13.955Z,5.40
2023-01-09T07:33:40.361Z,6.63
2023-01-09T07:36:07.188Z,5.40
2023-01-09T07:38:33.608Z,6.40
2023-01-09T07:41:00.006Z,5.07
2023-01-09T07:43:26.499Z,6.22
2023-01-09T07:45:52.946Z,6.07
2023-01-09T07:48:19.374Z,6.28
2023-01-09T07:50:45.820Z,6.57
2023-01-09T07:53:12.270Z,7.13
2023-01-09T07:55:38.693Z,6.82
2023-01-09T07:58:05.108Z,4.53
2023-01-09T08:00:33.185Z,6.13
2023-01-09T08:03:00.009Z,5.28
2023-01-09T08:05:26.607Z,4.45
2023-01-09T08:07:52.996Z,6.50
2023-01-09T08:10:19.747Z,5.38
2023-01-09T08:12:47.013Z,5.38
2023-01-09T08:15:14.292Z,5.65
2023-01-09T08:17:42.742Z,6.05
2023-01-09T08:20:14.414Z,5.93
2023-01-09T08:22:42.405Z,6.22
2023-01-09T08:25:12.277Z,6.38
2023-01-09T08:27:39.177Z,6.82
2023-01-09T08:30:06.243Z,5.90
2023-01-09T08:32:32.653Z,6.10
2023-01-09T08:34:59.224Z,5.50
2023-01-09T08:37:25.748Z,5.55
2023-01-09T08:39:53.205Z,4.88
2023-01-09T08:42:38.849Z,5.80
2023-01-09T08:45:24.296Z,4.95
2023-01-09T08:47:50.828Z,5.55
2023-01-09T08:50:17.244Z,4.40
2023-01-09T08:52:43.653Z,5.20
2023-01-09T08:55:10.165Z,4.07
2023-01-09T08:57:36.693Z,5.10
2023-01-09T09:00:04.350Z,5.55
2023-01-09T09:02:30.764Z,5.78
2023-01-09T09:04:57.915Z,5.13
2023-01-09T09:07:27.239Z,5.38
2023-01-09T09:09:54.345Z,5.57
2023-01-09T09:12:22.027Z,4.63
2023-01-09T09:15:07.150Z,4.97
2023-01-09T09:17:33.596Z,4.35
2023-01-09T09:20:00.399Z,5.85
2023-01-09T09:22:27.467Z,6.95
2023-01-09T09:24:53.874Z,6.15
2023-01-09T09:27:20.534Z,6.97
2023-01-09T09:29:46.973Z,7.50
2023-01-09T09:32:13.430Z,5.90
2023-01-09T09:34:39.888Z,5.85
2023-01-09T09:37:06.475Z,6.25
2023-01-09T09:39:32.969Z,4.82
2023-01-09T09:42:44.103Z,7.43
2023-01-09T09:45:24.900Z,8.05
2023-01-09T09:48:19.431Z,8.52
2023-01-09T09:51:00.508Z,5.80
2023-01-09T09:53:36.438Z,6.90
2023-01-09T09:56:04.957Z,7.00
2023-01-09T09:58:38.387Z,8.27
2023-01-09T10:01:06.879Z,5.93
2023-01-09T10:03:38.580Z,8.45
2023-01-09T10:06:20.357Z,7.15
2023-01-09T10:08:57.043Z,5.38
2023-01-09T10:11:35.126Z,5.30
2023-01-09T10:14:22.969Z,5.63
2023-01-09T10:17:19.025Z,4.07
2023-01-09T10:20:01.151Z,4.30
2023-01-09T10:22:48.969Z,4.00
2023-01-09T10:25:33.141Z,4.28
2023-01-09T10:28:08.317Z,3.72
2023-01-09T10:30:49.421Z,3.55
2023-01-09T10:33:43.019Z,2.80
2023-01-09T10:36:28.573Z,1.85
2023-01-09T10:39:00.020Z,1.55
2023-01-09T10:41:37.833Z,2.13
2023-01-09T10:44:15.015Z,2.17
2023-01-09T10:47:03.894Z,1.50
2023-01-09T10:49:30.373Z,1.50
2023-01-09T10:52:08.912Z,1.65
2023-01-09T10:54:42.976Z,1.65
2023-01-09T10:57:24.158Z,2.38
2023-01-09T10:59:50.555Z,2.00
2023-01-09T11:02:29.199Z,1.80
2023-01-09T11:04:55.607Z,1.73
2023-01-09T11:07:26.869Z,2.33
2023-01-09T11:09:58.216Z,1.50
2023-01-09T11:12:30.840Z,2.08
2023-01-09T11:15:19.262Z,2.33
2023-01-09T11:17:47.237Z,1.88
2023-01-09T11:20:19.032Z,2.80
2023-01-09T11:22:56.942Z,2.15
2023-01-09T11:25:26.495Z,2.50
2023-01-09T11:28:19.316Z,1.80
2023-01-09T11:30:59.673Z,1.80
2023-01-09T11:33:34.182Z,2.50
2023-01-09T11:38:32.069Z,1.98
2023-01-09T11:41:04.121Z,2.40
2023-01-09T11:43:38.205Z,2.15
2023-01-09T11:46:29.322Z,2.55
2023-01-09T11:48:58.062Z,2.38
2023-01-09T11:51:27.179Z,3.22
2023-01-09T11:54:28.629Z,2.83
2023-01-09T11:56:55.790Z,3.95
2023-01-09T11:59:26.714Z,2.13
2023-01-09T12:02:14.555Z,2.50
2023-01-09T12:04:49.766Z,2.60
2023-01-09T12:07:22.039Z,3.47
2023-01-09T12:10:11.297Z,2.38
2023-01-09T12:12:40.493Z,3.28
2023-01-09T12:15:16.522Z,2.88
2023-01-09T12:18:23.916Z,3.00
2023-01-09T12:21:07.632Z,2.78
2023-01-09T12:23:50.109Z,2.80
2023-01-09T12:26:24.246Z,2.15
2023-01-09T12:29:17.656Z,2.53
2023-01-09T12:31:52.721Z,2.10
2023-01-09T12:34:25.287Z,2.38
2023-01-09T12:36:59.476Z,3.83
2023-01-09T12:39:28.755Z,3.20
2023-01-09T12:42:25.077Z,3.97
2023-01-09T12:44:59.309Z,2.80
2023-01-09T12:47:45.472Z,3.33
2023-01-09T12:50:31.553Z,2.85
2023-01-09T12:53:29.484Z,2.60
2023-01-09T12:56:02.889Z,2.70
2023-01-09T12:58:41.210Z,2.70
2023-01-09T13:01:14.635Z,2.58
2023-01-09T13:04:18.624Z,3.92
2023-01-09T13:06:51.077Z,2.88
2023-01-09T13:09:26.036Z,2.17
2023-01-09T13:12:03.188Z,1.85
2023-01-09T13:14:55.273Z,1.92
2023-01-09T13:18:11.500Z,1.73
2023-01-09T13:20:47.690Z,1.92
2023-01-09T13:23:40.715Z,2.97
2023-01-09T13:26:15.867Z,3.15
2023-01-09T13:28:46.941Z,2.13
2023-01-09T13:31:37.194Z,1.75
2023-01-09T13:34:14.112Z,1.75
2023-01-09T13:36:50.307Z,2.17
2023-01-09T13:39:26.003Z,1.58
2023-01-09T13:42:16.350Z,1.75
2023-01-09T13:44:44.419Z,1.85
2023-01-09T13:47:21.672Z,1.67
2023-01-09T13:49:47.955Z,1.70
2023-01-09T13:52:29.674Z,1.88
2023-01-09T13:54:56.062Z,1.95
2023-01-09T13:57:25.949Z,2.92
2023-01-09T13:59:52.454Z,1.67
2023-01-09T14:02:34.371Z,1.80
2023-01-09T14:05:09.170Z,1.88
2023-01-09T14:07:37.378Z,1.50
2023-01-09T14:10:07.948Z,1.48
2023-01-09T14:12:43.158Z,1.70
2023-01-09T14:15:26.936Z,1.45
2023-01-09T14:18:05.527Z,1.30
2023-01-09T14:20:41.703Z,1.70
2023-01-09T14:23:45.560Z,1.65
2023-01-09T14:25:56.272Z,1.83
2023-01-09T14:28:27.799Z,2.35
2023-01-09T14:30:54.265Z,1.63
2023-01-09T14:33:21.390Z,1.65
2023-01-09T14:36:09.591Z,1.70
2023-01-09T14:38:49.635Z,1.48
2023-01-09T14:41:51.975Z,1.48
2023-01-09T14:44:35.291Z,1.50
2023-01-09T14:47:10.556Z,1.40
2023-01-09T14:49:51.685Z,1.73
2023-01-09T14:52:27.762Z,1.45
2023-01-09T14:54:59.077Z,1.40
2023-01-09T14:57:31.009Z,1.85
2023-01-09T14:59:59.340Z,1.45
2023-01-09T15:02:30.357Z,1.38
2023-01-09T15:05:02.387Z,1.67
2023-01-09T15:07:34.376Z,1.88
2023-01-09T15:10:03.862Z,1.40
2023-01-09T15:12:31.763Z,1.65
2023-01-09T15:15:01.281Z,1.23
2023-01-09T15:17:31.051Z,1.65
2023-01-09T15:20:00.627Z,1.83
2023-01-09T15:22:32.640Z,1.83
2023-01-09T15:25:12.108Z,1.17
2023-01-09T15:27:49.139Z,1.23
2023-01-09T15:30:18.537Z,1.20
2023-01-09T15:32:47.497Z,1.20
2023-01-09T15:35:14.310Z,1.25
2023-01-09T15:37:40.858Z,1.95
2023-01-09T15:40:17.214Z,1.90
2023-01-09T15:43:00.975Z,2.97
2023-01-09T15:45:40.859Z,2.38
2023-01-09T15:48:32.956Z,3.42
2023-01-09T15:51:10.672Z,1.88
2023-01-09T15:53:37.357Z,1.98
2023-01-09T15:56:19.482Z,1.83
2023-01-09T15:58:48.542Z,2.50
2023-01-09T16:01:31.037Z,2.30
2023-01-09T16:04:03.408Z,2.15
2023-01-09T16:06:32.750Z,2.63
2023-01-09T16:09:00.578Z,3.03
2023-01-09T16:11:32.607Z,2.20
2023-01-09T16:14:21.425Z,1.80
2023-01-09T16:16:50.066Z,2.30
2023-01-09T16:19:41.202Z,2.15
2023-01-09T16:22:23.125Z,2.13
2023-01-09T16:24:53.553Z,1.70
2023-01-09T16:27:26.887Z,2.00
2023-01-09T16:29:57.814Z,2.72
2023-01-09T16:32:29.674Z,2.33
2023-01-09T16:35:04.626Z,2.10
2023-01-09T16:37:32.319Z,1.98
2023-01-09T16:40:04.924Z,2.15
2023-01-09T16:42:53.675Z,1.70
2023-01-09T16:45:21.107Z,1.60
2023-01-09T16:47:47.498Z,1.45
2023-01-09T16:50:14.090Z,1.90
2023-01-09T16:52:40.448Z,1.80
2023-01-09T16:55:07.174Z,2.03
2023-01-09T16:57:34.663Z,1.83
2023-01-09T17:00:01.777Z,1.83
2023-01-09T17:02:28.336Z,1.42
2023-01-09T17:04:56.003Z,1.63
2023-01-09T17:07:27.854Z,2.45
2023-01-09T17:09:54.239Z,1.50
2023-01-09T17:12:24.123Z,2.33
2023-01-09T17:14:50.651Z,2.03
2023-01-09T17:17:18.072Z,1.67
2023-01-09T17:19:46.647Z,1.40
2023-01-09T17:22:14.160Z,3.30
2023-01-09T17:24:59.676Z,2.00
2023-01-09T17:28:02.785Z,1.52
2023-01-09T17:30:29.149Z,1.40
2023-01-09T17:32:55.580Z,1.55
2023-01-09T17:35:21.948Z,1.42
2023-01-09T17:37:48.327Z,3.80
2023-01-09T17:40:19.722Z,1.88
2023-01-09T17:42:46.109Z,1.73
2023-01-09T17:45:12.744Z,1.55
2023-01-09T17:47:39.167Z,1.25
2023-01-09T17:50:06.402Z,1.45
2023-01-09T17:52:33.144Z,1.50
2023-01-09T17:55:05.068Z,1.85
2023-01-09T17:57:32.794Z,2.05
2023-01-09T17:59:59.257Z,2.15
2023-01-09T18:02:25.681Z,2.40
2023-01-09T18:04:52.150Z,2.63
2023-01-09T18:07:18.565Z,2.38
2023-01-09T18:09:45.318Z,2.90
2023-01-09T18:12:11.819Z,2.65
2023-01-09T18:14:38.945Z,2.53
2023-01-09T18:17:06.282Z,2.35
2023-01-09T18:19:33.866Z,3.65
2023-01-09T18:22:00.559Z,2.00
2023-01-09T18:24:27.265Z,2.15
2023-01-09T18:26:54.315Z,3.25
2023-01-09T18:29:21.344Z,2.35
2023-01-09T18:31:48.155Z,3.50
2023-01-09T18:34:14.716Z,2.95
2023-01-09T18:36:41.247Z,2.58
2023-01-09T18:39:08.728Z,2.00
2023-01-09T18:41:35.258Z,2.45
2023-01-09T18:44:02.124Z,2.42
2023-01-09T18:46:32.112Z,3.05
2023-01-09T18:49:01.297Z,1.83
2023-01-09T18:51:28.750Z,2.70
2023-01-09T18:53:55.829Z,2.50
2023-01-09T18:56:23.260Z,2.42
2023-01-09T18:58:49.791Z,2.45
2023-01-09T19:01:16.827Z,2.85
2023-01-09T19:03:43.471Z,3.50
2023-01-09T19:06:10.707Z,2.50
2023-01-09T19:08:37.499Z,3.38
2023-01-09T19:11:04.432Z,2.17
2023-01-09T19:13:36.186Z,2.10
2023-01-09T19:16:03.561Z,3.35
2023-01-09T19:18:33.567Z,2.13
2023-01-09T19:20:59.998Z,2.55
2023-01-09T19:23:26.400Z,2.50
2023-01-09T19:25:53.681Z,2.15
2023-01-09T19:28:20.783Z,2.60
2023-01-09T19:30:47.519Z,3.72
2023-01-09T19:33:14.134Z,2.78
2023-01-09T19:35:40.596Z,3.38
2023-01-09T19:38:07.033Z,2.92
2023-01-09T19:40:33.500Z,2.95
2023-01-09T19:42:59.921Z,3.30
2023-01-09T19:45:26.455Z,2.80
2023-01-09T19:47:53.064Z,4.18
2023-01-09T19:50:19.628Z,2.33
2023-01-09T19:52:46.032Z,2.92
2023-01-09T19:55:13.824Z,2.42
2023-01-09T19:57:44.101Z,2.58
2023-01-09T20:00:11.525Z,1.90
2023-01-09T20:02:37.994Z,2.75
2023-01-09T20:05:04.746Z,2.88
2023-01-09T20:07:31.126Z,3.13
2023-01-09T20:09:57.555Z,3.88
2023-01-09T20:12:23.983Z,2.85
2023-01-09T20:14:50.616Z,2.30
2023-01-09T20:17:17.833Z,2.47
2023-01-09T20:19:45.510Z,4.18
2023-01-09T20:22:13.043Z,2.40
2023-01-09T20:24:39.966Z,2.40
2023-01-09T20:27:07.101Z,3.90
2023-01-09T20:29:33.647Z,3.78
2023-01-09T20:32:01.343Z,2.90
2023-01-09T20:34:27.912Z,2.72
2023-01-09T20:36:54.775Z,2.17
2023-01-09T20:39:21.404Z,2.83
2023-01-09T20:41:48.194Z,2.00
2023-01-09T20:44:15.526Z,4.18
2023-01-09T20:46:47.399Z,2.17
2023-01-09T20:49:16.007Z,2.08
2023-01-09T20:51:47.803Z,2.35
2023-01-09T20:54:15.378Z,2.00
2023-01-09T20:56:41.915Z,2.00
2023-01-09T20:59:16.897Z,2.45
2023-01-09T21:01:43.668Z,2.30
2023-01-09T21:04:10.195Z,2.35
2023-01-09T21:06:37.399Z,2.42
2023-01-09T21:09:05.197Z,3.47
2023-01-09T21:11:31.852Z,2.35
2023-01-09T21:13:58.232Z,2.35
2023-01-09T21:16:25.076Z,1.70
2023-01-09T21:18:53.438Z,2.63
2023-01-09T21:21:23.326Z,1.80
2023-01-09T21:23:52.229Z,2.95
2023-01-09T21:26:22.439Z,2.22
2023-01-09T21:28:50.367Z,1.73
2023-01-09T21:31:20.216Z,1.95
2023-01-09T21:33:47.995Z,1.85
2023-01-09T21:36:15.345Z,2.67
2023-01-09T21:38:41.802Z,2.50
2023-01-09T21:41:26.499Z,2.13
2023-01-09T21:44:11.341Z,1.65
2023-01-09T21:46:53.224Z,1.63
2023-01-09T21:49:20.642Z,2.03
2023-01-09T21:51:47.421Z,1.65
2023-01-09T21:54:13.932Z,2.30
2023-01-09T21:56:40.359Z,1.98
2023-01-09T21:59:07.177Z,1.70
2023-01-09T22:01:33.626Z,2.17
2023-01-09T22:04:00.254Z,2.97
2023-01-09T22:06:28.301Z,3.42
2023-01-09T22:08:55.804Z,1.90
2023-01-09T22:11:22.764Z,2.60
2023-01-09T22:13:50.327Z,3.13
2023-01-09T22:16:17.379Z,1.83
2023-01-09T22:18:44.197Z,1.75
2023-01-09T22:21:11.106Z,2.20
2023-01-09T22:23:37.591Z,1.40
2023-01-09T22:26:09.085Z,1.90
2023-01-09T22:28:35.547Z,2.03
2023-01-09T22:31:02.089Z,2.15
2023-01-09T22:33:28.649Z,2.55
2023-01-09T22:35:55.095Z,2.72
2023-01-09T22:38:21.553Z,2.63
2023-01-09T22:40:48.093Z,2.42
2023-01-09T22:43:16.821Z,1.52
2023-01-09T22:45:43.349Z,1.73
2023-01-09T22:48:09.939Z,1.75
2023-01-09T22:50:37.072Z,1.88
2023-01-09T22:53:03.690Z,2.25
2023-01-09T22:55:30.127Z,2.05
2023-01-09T22:57:56.501Z,2.20
2023-01-09T23:00:22.982Z,2.72
2023-01-09T23:02:49.544Z,1.35
2023-01-09T23:05:16.097Z,2.78
2023-01-09T23:07:42.472Z,2.00
2023-01-09T23:10:09.597Z,2.15
2023-01-09T23:12:36.048Z,2.15
2023-01-09T23:15:02.556Z,2.03
2023-01-09T23:17:28.984Z,2.22
2023-01-09T23:19:55.460Z,1.27
2023-01-09T23:22:22.665Z,1.65
2023-01-09T23:24:49.053Z,2.03
2023-01-09T23:27:15.417Z,2.67
2023-01-09T23:29:41.863Z,1.50
2023-01-09T23:32:08.340Z,1.85
2023-01-09T23:34:34.738Z,1.40
2023-01-09T23:37:01.247Z,2.03
2023-01-09T23:39:27.633Z,2.75
2023-01-09T23:42:12.597Z,1.65
2023-01-09T23:47:05.473Z,2.35
2023-01-09T23:49:32.063Z,1.67
2023-01-09T23:51:58.530Z,2.45
2023-01-09T23:54:24.916Z,1.83
2023-01-09T23:56:53.190Z,1.70
2023-01-09T23:59:20.204Z,1.73
